sensor_id;sensor_type;location;lat;lon;timestamp;P1;durP1;ratioP1;P2;durP2;ratioP2
21030;SDS011;61072;47.808;7.636;2022-07-23T00:00:15;9.52;;;8.27;;
21030;SDS011;61072;47.808;7.636;2022-07-23T00:02:43;10.18;;;7.65;;
21030;SDS011;61072;47.808;7.636;2022-07-23T00:05:10;17.08;;;8.35;;
21030;SDS011;61072;47.808;7.636;2022-07-23T00:07:37;11.10;;;7.05;;
21030;SDS011;61072;47.808;7.636;2022-07-23T00:10:04;7.72;;;6.78;;
21030;SDS011;61072;47.808;7.636;2022-07-23T00:12:31;11.77;;;6.85;;
21030;SDS011;61072;47.808;7.636;2022-07-23T00:14:58;9.90;;;6.90;;
21030;SDS011;61072;47.808;7.636;2022-07-23T00:17:26;8.23;;;7.30;;
21030;SDS011;61072;47.808;7.636;2022-07-23T00:19:52;10.70;;;8.25;;
21030;SDS011;61072;47.808;7.636;2022-07-23T00:22:19;8.32;;;7.53;;
21030;SDS011;61072;47.808;7.636;2022-07-23T00:24:46;7.78;;;6.97;;
21030;SDS011;61072;47.808;7.636;2022-07-23T00:27:33;10.95;;;7.32;;
21030;SDS011;61072;47.808;7.636;2022-07-23T00:30:00;9.02;;;7.05;;
21030;SDS011;61072;47.808;7.636;2022-07-23T00:32:26;8.77;;;7.65;;
21030;SDS011;61072;47.808;7.636;2022-07-23T00:35:13;8.75;;;6.95;;
21030;SDS011;61072;47.808;7.636;2022-07-23T00:37:40;9.40;;;6.82;;
21030;SDS011;61072;47.808;7.636;2022-07-23T00:40:08;8.40;;;7.50;;
21030;SDS011;61072;47.808;7.636;2022-07-23T00:42:35;7.95;;;7.15;;
21030;SDS011;61072;47.808;7.636;2022-07-23T00:45:02;9.05;;;7.20;;
21030;SDS011;61072;47.808;7.636;2022-07-23T00:47:30;12.40;;;8.95;;
21030;SDS011;61072;47.808;7.636;2022-07-23T00:49:56;7.97;;;7.13;;
21030;SDS011;61072;47.808;7.636;2022-07-23T00:52:23;9.25;;;7.38;;
21030;SDS011;61072;47.808;7.636;2022-07-23T00:54:50;10.75;;;7.32;;
21030;SDS011;61072;47.808;7.636;2022-07-23T00:57:18;11.73;;;7.57;;
21030;SDS011;61072;47.808;7.636;2022-07-23T00:59:50;9.43;;;7.70;;
21030;SDS011;61072;47.808;7.636;2022-07-23T01:02:17;9.52;;;7.10;;
21030;SDS011;61072;47.808;7.636;2022-07-23T01:04:44;8.00;;;7.20;;
21030;SDS011;61072;47.808;7.636;2022-07-23T01:07:11;9.00;;;7.38;;
21030;SDS011;61072;47.808;7.636;2022-07-23T01:09:38;7.10;;;6.40;;
21030;SDS011;61072;47.808;7.636;2022-07-23T01:12:04;8.95;;;7.30;;
21030;SDS011;61072;47.808;7.636;2022-07-23T01:14:32;9.15;;;8.15;;
21030;SDS011;61072;47.808;7.636;2022-07-23T01:16:59;8.02;;;7.22;;
21030;SDS011;61072;47.808;7.636;2022-07-23T01:19:26;8.38;;;7.32;;
21030;SDS011;61072;47.808;7.636;2022-07-23T01:21:53;13.85;;;6.82;;
21030;SDS011;61072;47.808;7.636;2022-07-23T01:24:20;9.73;;;6.88;;
21030;SDS011;61072;47.808;7.636;2022-07-23T01:26:47;9.93;;;7.68;;
21030;SDS011;61072;47.808;7.636;2022-07-23T01:29:15;8.70;;;7.65;;
21030;SDS011;61072;47.808;7.636;2022-07-23T01:31:42;9.02;;;7.68;;
21030;SDS011;61072;47.808;7.636;2022-07-23T01:34:10;8.07;;;6.80;;
21030;SDS011;61072;47.808;7.636;2022-07-23T01:36:37;12.35;;;7.32;;
21030;SDS011;61072;47.808;7.636;2022-07-23T01:39:05;10.48;;;7.30;;
21030;SDS011;61072;47.808;7.636;2022-07-23T01:41:32;8.10;;;6.45;;
21030;SDS011;61072;47.808;7.636;2022-07-23T01:44:00;11.85;;;6.80;;
21030;SDS011;61072;47.808;7.636;2022-07-23T01:46:27;12.15;;;7.30;;
21030;SDS011;61072;47.808;7.636;2022-07-23T01:48:53;11.30;;;7.00;;
21030;SDS011;61072;47.808;7.636;2022-07-23T01:51:20;8.88;;;7.03;;
21030;SDS011;61072;47.808;7.636;2022-07-23T01:53:47;8.93;;;7.10;;
21030;SDS011;61072;47.808;7.636;2022-07-23T01:56:14;8.68;;;7.47;;
21030;SDS011;61072;47.808;7.636;2022-07-23T01:58:41;8.32;;;7.30;;
21030;SDS011;61072;47.808;7.636;2022-07-23T02:01:08;9.65;;;7.63;;
21030;SDS011;61072;47.808;7.636;2022-07-23T02:03:35;9.38;;;7.75;;
21030;SDS011;61072;47.808;7.636;2022-07-23T02:06:01;10.70;;;7.75;;
21030;SDS011;61072;47.808;7.636;2022-07-23T02:08:28;9.55;;;7.57;;
21030;SDS011;61072;47.808;7.636;2022-07-23T02:10:55;10.10;;;7.60;;
21030;SDS011;61072;47.808;7.636;2022-07-23T02:13:22;11.30;;;7.82;;
21030;SDS011;61072;47.808;7.636;2022-07-23T02:15:48;9.90;;;7.55;;
21030;SDS011;61072;47.808;7.636;2022-07-23T02:18:15;9.45;;;8.40;;
21030;SDS011;61072;47.808;7.636;2022-07-23T02:20:42;10.13;;;8.75;;
21030;SDS011;61072;47.808;7.636;2022-07-23T02:23:10;10.07;;;8.63;;
21030;SDS011;61072;47.808;7.636;2022-07-23T02:25:37;10.43;;;9.32;;
21030;SDS011;61072;47.808;7.636;2022-07-23T02:28:04;10.63;;;8.10;;
21030;SDS011;61072;47.808;7.636;2022-07-23T02:30:31;9.20;;;8.30;;
21030;SDS011;61072;47.808;7.636;2022-07-23T02:32:57;11.70;;;7.82;;
21030;SDS011;61072;47.808;7.636;2022-07-23T02:35:24;9.20;;;8.07;;
21030;SDS011;61072;47.808;7.636;2022-07-23T02:37:51;8.48;;;7.68;;
21030;SDS011;61072;47.808;7.636;2022-07-23T02:40:18;8.15;;;7.35;;
21030;SDS011;61072;47.808;7.636;2022-07-23T02:42:45;10.75;;;8.40;;
21030;SDS011;61072;47.808;7.636;2022-07-23T02:45:12;9.10;;;8.18;;
21030;SDS011;61072;47.808;7.636;2022-07-23T02:47:39;11.50;;;8.23;;
21030;SDS011;61072;47.808;7.636;2022-07-23T02:50:05;10.73;;;8.68;;
21030;SDS011;61072;47.808;7.636;2022-07-23T02:52:33;10.02;;;8.95;;
21030;SDS011;61072;47.808;7.636;2022-07-23T02:54:59;10.95;;;8.82;;
21030;SDS011;61072;47.808;7.636;2022-07-23T02:57:26;8.95;;;8.05;;
21030;SDS011;61072;47.808;7.636;2022-07-23T02:59:53;10.45;;;9.35;;
21030;SDS011;61072;47.808;7.636;2022-07-23T03:02:19;14.68;;;10.32;;
21030;SDS011;61072;47.808;7.636;2022-07-23T03:04:46;13.90;;;9.20;;
21030;SDS011;61072;47.808;7.636;2022-07-23T03:07:13;11.13;;;9.43;;
21030;SDS011;61072;47.808;7.636;2022-07-23T03:09:58;12.45;;;9.65;;
21030;SDS011;61072;47.808;7.636;2022-07-23T03:12:25;9.88;;;8.15;;
21030;SDS011;61072;47.808;7.636;2022-07-23T03:14:52;10.82;;;8.98;;
21030;SDS011;61072;47.808;7.636;2022-07-23T03:17:18;12.32;;;9.20;;
21030;SDS011;61072;47.808;7.636;2022-07-23T03:19:45;10.10;;;8.80;;
21030;SDS011;61072;47.808;7.636;2022-07-23T03:22:12;11.00;;;9.93;;
21030;SDS011;61072;47.808;7.636;2022-07-23T03:24:39;12.98;;;9.25;;
21030;SDS011;61072;47.808;7.636;2022-07-23T03:27:24;11.38;;;9.77;;
21030;SDS011;61072;47.808;7.636;2022-07-23T03:29:53;13.93;;;8.27;;
21030;SDS011;61072;47.808;7.636;2022-07-23T03:32:22;15.73;;;9.50;;
21030;SDS011;61072;47.808;7.636;2022-07-23T03:34:49;14.18;;;9.48;;
21030;SDS011;61072;47.808;7.636;2022-07-23T03:37:17;10.95;;;9.68;;
21030;SDS011;61072;47.808;7.636;2022-07-23T03:39:44;11.30;;;9.10;;
21030;SDS011;61072;47.808;7.636;2022-07-23T03:42:11;13.88;;;10.77;;
21030;SDS011;61072;47.808;7.636;2022-07-23T03:44:38;12.27;;;8.90;;
21030;SDS011;61072;47.808;7.636;2022-07-23T03:47:05;9.52;;;8.50;;
21030;SDS011;61072;47.808;7.636;2022-07-23T03:49:32;10.27;;;8.32;;
21030;SDS011;61072;47.808;7.636;2022-07-23T03:51:59;10.18;;;8.50;;
21030;SDS011;61072;47.808;7.636;2022-07-23T03:54:26;10.38;;;8.52;;
21030;SDS011;61072;47.808;7.636;2022-07-23T03:56:53;10.30;;;8.00;;
21030;SDS011;61072;47.808;7.636;2022-07-23T03:59:20;9.15;;;8.27;;
21030;SDS011;61072;47.808;7.636;2022-07-23T04:01:49;9.68;;;8.65;;
21030;SDS011;61072;47.808;7.636;2022-07-23T04:04:16;10.15;;;8.88;;
21030;SDS011;61072;47.808;7.636;2022-07-23T04:06:43;10.77;;;9.23;;
21030;SDS011;61072;47.808;7.636;2022-07-23T04:09:09;9.68;;;8.23;;
21030;SDS011;61072;47.808;7.636;2022-07-23T04:11:36;9.60;;;8.32;;
21030;SDS011;61072;47.808;7.636;2022-07-23T04:14:03;12.85;;;9.20;;
21030;SDS011;61072;47.808;7.636;2022-07-23T04:16:30;10.65;;;9.45;;
21030;SDS011;61072;47.808;7.636;2022-07-23T04:18:57;19.38;;;10.10;;
21030;SDS011;61072;47.808;7.636;2022-07-23T04:21:25;10.27;;;8.85;;
21030;SDS011;61072;47.808;7.636;2022-07-23T04:23:52;11.23;;;8.38;;
21030;SDS011;61072;47.808;7.636;2022-07-23T04:26:19;10.35;;;8.88;;
21030;SDS011;61072;47.808;7.636;2022-07-23T04:28:45;9.88;;;8.90;;
21030;SDS011;61072;47.808;7.636;2022-07-23T04:31:12;10.35;;;9.25;;
21030;SDS011;61072;47.808;7.636;2022-07-23T04:33:39;11.20;;;9.88;;
21030;SDS011;61072;47.808;7.636;2022-07-23T04:36:05;11.10;;;9.18;;
21030;SDS011;61072;47.808;7.636;2022-07-23T04:38:32;9.20;;;8.27;;
21030;SDS011;61072;47.808;7.636;2022-07-23T04:40:59;10.50;;;8.30;;
21030;SDS011;61072;47.808;7.636;2022-07-23T04:43:26;10.23;;;8.38;;
21030;SDS011;61072;47.808;7.636;2022-07-23T04:45:53;9.55;;;7.68;;
21030;SDS011;61072;47.808;7.636;2022-07-23T04:48:21;8.13;;;7.38;;
21030;SDS011;61072;47.808;7.636;2022-07-23T04:50:48;10.98;;;7.65;;
21030;SDS011;61072;47.808;7.636;2022-07-23T04:53:14;9.77;;;8.25;;
21030;SDS011;61072;47.808;7.636;2022-07-23T04:55:41;10.05;;;7.68;;
21030;SDS011;61072;47.808;7.636;2022-07-23T04:58:08;8.68;;;7.78;;
21030;SDS011;61072;47.808;7.636;2022-07-23T05:00:34;8.55;;;7.75;;
21030;SDS011;61072;47.808;7.636;2022-07-23T05:03:01;9.65;;;8.43;;
21030;SDS011;61072;47.808;7.636;2022-07-23T05:05:28;9.82;;;7.72;;
21030;SDS011;61072;47.808;7.636;2022-07-23T05:07:57;11.05;;;7.88;;
21030;SDS011;61072;47.808;7.636;2022-07-23T05:10:23;9.40;;;7.72;;
21030;SDS011;61072;47.808;7.636;2022-07-23T05:12:52;9.05;;;6.95;;
21030;SDS011;61072;47.808;7.636;2022-07-23T05:15:19;8.77;;;7.10;;
21030;SDS011;61072;47.808;7.636;2022-07-23T05:17:45;12.40;;;7.95;;
21030;SDS011;61072;47.808;7.636;2022-07-23T05:20:12;9.00;;;8.00;;
21030;SDS011;61072;47.808;7.636;2022-07-23T05:22:39;10.13;;;8.07;;
21030;SDS011;61072;47.808;7.636;2022-07-23T05:25:06;8.55;;;7.75;;
21030;SDS011;61072;47.808;7.636;2022-07-23T05:27:33;10.00;;;7.95;;
21030;SDS011;61072;47.808;7.636;2022-07-23T05:30:00;8.80;;;7.90;;
21030;SDS011;61072;47.808;7.636;2022-07-23T05:32:27;9.70;;;8.57;;
21030;SDS011;61072;47.808;7.636;2022-07-23T05:34:54;8.82;;;7.95;;
21030;SDS011;61072;47.808;7.636;2022-07-23T05:37:21;13.23;;;8.93;;
21030;SDS011;61072;47.808;7.636;2022-07-23T05:39:47;9.65;;;8.45;;
21030;SDS011;61072;47.808;7.636;2022-07-23T05:42:14;10.18;;;8.55;;
21030;SDS011;61072;47.808;7.636;2022-07-23T05:44:41;8.55;;;7.75;;
21030;SDS011;61072;47.808;7.636;2022-07-23T05:47:07;9.30;;;8.10;;
21030;SDS011;61072;47.808;7.636;2022-07-23T05:49:36;8.88;;;8.05;;
21030;SDS011;61072;47.808;7.636;2022-07-23T05:52:04;8.38;;;7.05;;
21030;SDS011;61072;47.808;7.636;2022-07-23T05:54:35;9.13;;;7.53;;
21030;SDS011;61072;47.808;7.636;2022-07-23T05:57:02;11.68;;;7.25;;
21030;SDS011;61072;47.808;7.636;2022-07-23T05:59:29;8.70;;;6.90;;
21030;SDS011;61072;47.808;7.636;2022-07-23T06:01:56;9.05;;;7.82;;
21030;SDS011;61072;47.808;7.636;2022-07-23T06:04:23;8.25;;;7.40;;
21030;SDS011;61072;47.808;7.636;2022-07-23T06:06:50;10.48;;;7.82;;
21030;SDS011;61072;47.808;7.636;2022-07-23T06:09:17;8.60;;;7.35;;
21030;SDS011;61072;47.808;7.636;2022-07-23T06:11:44;8.95;;;7.03;;
21030;SDS011;61072;47.808;7.636;2022-07-23T06:14:11;7.93;;;7.13;;
21030;SDS011;61072;47.808;7.636;2022-07-23T06:16:37;8.30;;;7.10;;
21030;SDS011;61072;47.808;7.636;2022-07-23T06:19:04;7.88;;;7.07;;
21030;SDS011;61072;47.808;7.636;2022-07-23T06:21:31;7.82;;;7.03;;
21030;SDS011;61072;47.808;7.636;2022-07-23T06:24:13;8.27;;;7.10;;
21030;SDS011;61072;47.808;7.636;2022-07-23T06:26:40;8.00;;;7.22;;
21030;SDS011;61072;47.808;7.636;2022-07-23T06:29:07;7.80;;;6.45;;
21030;SDS011;61072;47.808;7.636;2022-07-23T06:31:34;9.95;;;7.30;;
21030;SDS011;61072;47.808;7.636;2022-07-23T06:34:01;7.75;;;6.03;;
21030;SDS011;61072;47.808;7.636;2022-07-23T06:36:27;8.07;;;6.32;;
21030;SDS011;61072;47.808;7.636;2022-07-23T06:38:55;10.40;;;7.80;;
21030;SDS011;61072;47.808;7.636;2022-07-23T06:41:21;7.43;;;6.70;;
21030;SDS011;61072;47.808;7.636;2022-07-23T06:43:49;7.53;;;6.47;;
21030;SDS011;61072;47.808;7.636;2022-07-23T06:46:15;9.43;;;6.80;;
21030;SDS011;61072;47.808;7.636;2022-07-23T06:48:43;6.97;;;6.28;;
21030;SDS011;61072;47.808;7.636;2022-07-23T06:51:09;6.72;;;6.10;;
21030;SDS011;61072;47.808;7.636;2022-07-23T06:53:36;7.05;;;6.25;;
21030;SDS011;61072;47.808;7.636;2022-07-23T06:56:03;7.80;;;6.72;;
21030;SDS011;61072;47.808;7.636;2022-07-23T06:58:30;7.57;;;6.28;;
21030;SDS011;61072;47.808;7.636;2022-07-23T07:00:56;7.78;;;6.53;;
21030;SDS011;61072;47.808;7.636;2022-07-23T07:03:23;8.05;;;6.63;;
21030;SDS011;61072;47.808;7.636;2022-07-23T07:05:50;10.10;;;7.13;;
21030;SDS011;61072;47.808;7.636;2022-07-23T07:08:18;10.45;;;7.03;;
21030;SDS011;61072;47.808;7.636;2022-07-23T07:10:45;8.88;;;7.22;;
21030;SDS011;61072;47.808;7.636;2022-07-23T07:13:12;7.70;;;6.70;;
21030;SDS011;61072;47.808;7.636;2022-07-23T07:15:39;7.80;;;6.63;;
21030;SDS011;61072;47.808;7.636;2022-07-23T07:18:06;8.77;;;7.10;;
21030;SDS011;61072;47.808;7.636;2022-07-23T07:20:32;6.97;;;6.28;;
21030;SDS011;61072;47.808;7.636;2022-07-23T07:22:59;10.32;;;6.93;;
21030;SDS011;61072;47.808;7.636;2022-07-23T07:25:26;7.53;;;6.43;;
21030;SDS011;61072;47.808;7.636;2022-07-23T07:27:53;8.70;;;7.10;;
21030;SDS011;61072;47.808;7.636;2022-07-23T07:30:19;8.40;;;6.63;;
21030;SDS011;61072;47.808;7.636;2022-07-23T07:32:46;7.60;;;6.20;;
21030;SDS011;61072;47.808;7.636;2022-07-23T07:35:23;7.10;;;6.40;;
21030;SDS011;61072;47.808;7.636;2022-07-23T07:37:50;10.65;;;5.88;;
21030;SDS011;61072;47.808;7.636;2022-07-23T07:40:18;7.53;;;5.93;;
21030;SDS011;61072;47.808;7.636;2022-07-23T07:42:45;6.45;;;5.38;;
21030;SDS011;61072;47.808;7.636;2022-07-23T07:45:13;7.75;;;5.55;;
21030;SDS011;61072;47.808;7.636;2022-07-23T07:47:40;6.93;;;5.85;;
21030;SDS011;61072;47.808;7.636;2022-07-23T07:50:08;9.65;;;6.28;;
21030;SDS011;61072;47.808;7.636;2022-07-23T07:52:37;8.02;;;6.38;;
21030;SDS011;61072;47.808;7.636;2022-07-23T07:55:07;6.60;;;5.80;;
21030;SDS011;61072;47.808;7.636;2022-07-23T07:57:35;7.88;;;5.53;;
21030;SDS011;61072;47.808;7.636;2022-07-23T08:00:03;6.68;;;6.07;;
21030;SDS011;61072;47.808;7.636;2022-07-23T08:02:43;6.43;;;5.65;;
21030;SDS011;61072;47.808;7.636;2022-07-23T08:05:11;8.30;;;6.07;;
21030;SDS011;61072;47.808;7.636;2022-07-23T08:07:39;7.57;;;5.97;;
21030;SDS011;61072;47.808;7.636;2022-07-23T08:10:10;6.32;;;5.72;;
21030;SDS011;61072;47.808;7.636;2022-07-23T08:12:42;7.28;;;5.68;;
21030;SDS011;61072;47.808;7.636;2022-07-23T08:15:17;8.98;;;7.18;;
21030;SDS011;61072;47.808;7.636;2022-07-23T08:17:48;7.38;;;6.30;;
21030;SDS011;61072;47.808;7.636;2022-07-23T08:20:16;10.52;;;6.35;;
21030;SDS011;61072;47.808;7.636;2022-07-23T08:22:47;8.85;;;6.03;;
21030;SDS011;61072;47.808;7.636;2022-07-23T08:25:22;8.73;;;7.05;;
21030;SDS011;61072;47.808;7.636;2022-07-23T08:27:51;7.78;;;6.50;;
21030;SDS011;61072;47.808;7.636;2022-07-23T08:30:19;6.88;;;6.18;;
21030;SDS011;61072;47.808;7.636;2022-07-23T08:32:49;9.90;;;6.30;;
21030;SDS011;61072;47.808;7.636;2022-07-23T08:35:29;7.50;;;6.45;;
21030;SDS011;61072;47.808;7.636;2022-07-23T08:38:02;8.95;;;6.47;;
21030;SDS011;61072;47.808;7.636;2022-07-23T08:40:31;8.15;;;6.38;;
21030;SDS011;61072;47.808;7.636;2022-07-23T08:43:07;8.30;;;5.70;;
21030;SDS011;61072;47.808;7.636;2022-07-23T08:45:37;6.40;;;5.80;;
21030;SDS011;61072;47.808;7.636;2022-07-23T08:48:10;9.57;;;6.53;;
21030;SDS011;61072;47.808;7.636;2022-07-23T08:50:42;8.25;;;6.70;;
21030;SDS011;61072;47.808;7.636;2022-07-23T08:53:10;6.95;;;6.10;;
21030;SDS011;61072;47.808;7.636;2022-07-23T08:55:37;8.93;;;6.10;;
21030;SDS011;61072;47.808;7.636;2022-07-23T08:58:04;9.75;;;6.65;;
21030;SDS011;61072;47.808;7.636;2022-07-23T09:00:31;8.38;;;6.20;;
21030;SDS011;61072;47.808;7.636;2022-07-23T09:02:58;9.15;;;6.50;;
21030;SDS011;61072;47.808;7.636;2022-07-23T09:05:25;8.25;;;6.25;;
21030;SDS011;61072;47.808;7.636;2022-07-23T09:08:04;7.80;;;6.20;;
21030;SDS011;61072;47.808;7.636;2022-07-23T09:13:25;7.45;;;6.72;;
21030;SDS011;61072;47.808;7.636;2022-07-23T09:15:55;8.03;;;6.57;;
21030;SDS011;61072;47.808;7.636;2022-07-23T09:18:37;7.88;;;6.80;;
21030;SDS011;61072;47.808;7.636;2022-07-23T09:21:25;12.55;;;6.80;;
21030;SDS011;61072;47.808;7.636;2022-07-23T09:29:02;8.75;;;7.03;;
21030;SDS011;61072;47.808;7.636;2022-07-23T09:32:18;8.57;;;7.00;;
21030;SDS011;61072;47.808;7.636;2022-07-23T09:34:24;10.15;;;6.88;;
21030;SDS011;61072;47.808;7.636;2022-07-23T09:37:12;9.20;;;7.65;;
21030;SDS011;61072;47.808;7.636;2022-07-23T09:39:41;11.00;;;7.15;;
21030;SDS011;61072;47.808;7.636;2022-07-23T09:42:25;7.55;;;6.80;;
21030;SDS011;61072;47.808;7.636;2022-07-23T09:45:01;11.02;;;7.85;;
21030;SDS011;61072;47.808;7.636;2022-07-23T09:47:34;9.40;;;7.63;;
21030;SDS011;61072;47.808;7.636;2022-07-23T09:50:07;10.05;;;7.63;;
21030;SDS011;61072;47.808;7.636;2022-07-23T09:52:42;8.63;;;6.97;;
21030;SDS011;61072;47.808;7.636;2022-07-23T09:55:17;9.18;;;6.80;;
21030;SDS011;61072;47.808;7.636;2022-07-23T09:58:03;10.30;;;7.28;;
21030;SDS011;61072;47.808;7.636;2022-07-23T10:00:40;8.48;;;7.22;;
21030;SDS011;61072;47.808;7.636;2022-07-23T10:03:15;10.45;;;7.53;;
21030;SDS011;61072;47.808;7.636;2022-07-23T10:05:45;7.93;;;6.97;;
21030;SDS011;61072;47.808;7.636;2022-07-23T10:08:20;10.23;;;7.05;;
21030;SDS011;61072;47.808;7.636;2022-07-23T10:10:54;9.45;;;7.95;;
21030;SDS011;61072;47.808;7.636;2022-07-23T10:13:21;7.63;;;6.88;;
21030;SDS011;61072;47.808;7.636;2022-07-23T10:16:07;8.38;;;7.50;;
21030;SDS011;61072;47.808;7.636;2022-07-23T10:18:42;10.25;;;7.70;;
21030;SDS011;61072;47.808;7.636;2022-07-23T10:21:10;9.10;;;7.38;;
21030;SDS011;61072;47.808;7.636;2022-07-23T10:23:44;9.32;;;7.72;;
21030;SDS011;61072;47.808;7.636;2022-07-23T10:26:24;10.32;;;7.78;;
21030;SDS011;61072;47.808;7.636;2022-07-23T10:31:35;8.05;;;7.25;;
21030;SDS011;61072;47.808;7.636;2022-07-23T10:34:37;11.35;;;6.80;;
21030;SDS011;61072;47.808;7.636;2022-07-23T10:37:23;8.15;;;6.65;;
21030;SDS011;61072;47.808;7.636;2022-07-23T10:42:36;7.45;;;6.50;;
21030;SDS011;61072;47.808;7.636;2022-07-23T10:45:23;7.40;;;6.70;;
21030;SDS011;61072;47.808;7.636;2022-07-23T10:53:59;8.95;;;6.63;;
21030;SDS011;61072;47.808;7.636;2022-07-23T10:59:24;6.95;;;6.25;;
21030;SDS011;61072;47.808;7.636;2022-07-23T11:01:52;8.70;;;7.07;;
21030;SDS011;61072;47.808;7.636;2022-07-23T11:04:19;10.15;;;7.15;;
21030;SDS011;61072;47.808;7.636;2022-07-23T11:09:29;9.43;;;6.60;;
21030;SDS011;61072;47.808;7.636;2022-07-23T11:15:06;7.65;;;6.53;;
21030;SDS011;61072;47.808;7.636;2022-07-23T11:20:18;13.37;;;6.27;;
21030;SDS011;61072;47.808;7.636;2022-07-23T11:22:51;7.90;;;6.40;;
21030;SDS011;61072;47.808;7.636;2022-07-23T11:27:50;7.07;;;6.28;;
21030;SDS011;61072;47.808;7.636;2022-07-23T11:32:54;9.75;;;6.40;;
21030;SDS011;61072;47.808;7.636;2022-07-23T11:35:41;7.10;;;6.07;;
21030;SDS011;61072;47.808;7.636;2022-07-23T11:38:13;6.97;;;6.30;;
21030;SDS011;61072;47.808;7.636;2022-07-23T11:40:43;6.40;;;5.80;;
21030;SDS011;61072;47.808;7.636;2022-07-23T11:43:13;8.73;;;6.45;;
21030;SDS011;61072;47.808;7.636;2022-07-23T11:45:45;8.15;;;5.97;;
21030;SDS011;61072;47.808;7.636;2022-07-23T11:50:55;7.72;;;6.70;;
21030;SDS011;61072;47.808;7.636;2022-07-23T11:53:27;9.65;;;6.82;;
21030;SDS011;61072;47.808;7.636;2022-07-23T11:56:10;6.40;;;5.80;;
21030;SDS011;61072;47.808;7.636;2022-07-23T11:58:38;8.82;;;6.18;;
21030;SDS011;61072;47.808;7.636;2022-07-23T12:01:05;6.97;;;6.28;;
21030;SDS011;61072;47.808;7.636;2022-07-23T12:03:48;8.48;;;6.70;;
21030;SDS011;61072;47.808;7.636;2022-07-23T12:06:16;9.48;;;6.72;;
21030;SDS011;61072;47.808;7.636;2022-07-23T12:08:44;7.85;;;7.03;;
21030;SDS011;61072;47.808;7.636;2022-07-23T12:11:11;7.88;;;6.93;;
21030;SDS011;61072;47.808;7.636;2022-07-23T12:13:38;7.45;;;6.20;;
21030;SDS011;61072;47.808;7.636;2022-07-23T12:16:06;7.50;;;6.55;;
21030;SDS011;61072;47.808;7.636;2022-07-23T12:18:34;8.20;;;7.10;;
21030;SDS011;61072;47.808;7.636;2022-07-23T12:21:03;7.38;;;6.57;;
21030;SDS011;61072;47.808;7.636;2022-07-23T12:23:33;7.85;;;6.38;;
21030;SDS011;61072;47.808;7.636;2022-07-23T12:26:03;8.13;;;6.65;;
21030;SDS011;61072;47.808;7.636;2022-07-23T12:28:31;6.85;;;6.25;;
21030;SDS011;61072;47.808;7.636;2022-07-23T12:30:59;7.93;;;6.47;;
21030;SDS011;61072;47.808;7.636;2022-07-23T12:35:57;7.13;;;6.43;;
21030;SDS011;61072;47.808;7.636;2022-07-23T12:38:26;10.88;;;6.15;;
21030;SDS011;61072;47.808;7.636;2022-07-23T12:40:56;8.17;;;6.67;;
21030;SDS011;61072;47.808;7.636;2022-07-23T12:43:25;7.45;;;6.75;;
21030;SDS011;61072;47.808;7.636;2022-07-23T12:45:53;6.78;;;6.07;;
21030;SDS011;61072;47.808;7.636;2022-07-23T12:48:25;9.13;;;6.80;;
21030;SDS011;61072;47.808;7.636;2022-07-23T12:53:21;7.57;;;6.80;;
21030;SDS011;61072;47.808;7.636;2022-07-23T12:56:16;7.78;;;7.03;;
21030;SDS011;61072;47.808;7.636;2022-07-23T13:04:06;7.40;;;6.53;;
21030;SDS011;61072;47.808;7.636;2022-07-23T13:09:15;9.02;;;6.30;;
21030;SDS011;61072;47.808;7.636;2022-07-23T13:11:48;7.82;;;6.13;;
21030;SDS011;61072;47.808;7.636;2022-07-23T13:14:17;8.83;;;6.23;;
21030;SDS011;61072;47.808;7.636;2022-07-23T13:16:46;8.32;;;6.50;;
21030;SDS011;61072;47.808;7.636;2022-07-23T13:19:15;8.77;;;6.75;;
21030;SDS011;61072;47.808;7.636;2022-07-23T13:21:44;6.57;;;5.97;;
21030;SDS011;61072;47.808;7.636;2022-07-23T13:24:12;7.82;;;6.25;;
21030;SDS011;61072;47.808;7.636;2022-07-23T13:26:39;7.50;;;6.70;;
21030;SDS011;61072;47.808;7.636;2022-07-23T13:29:06;8.75;;;6.28;;
21030;SDS011;61072;47.808;7.636;2022-07-23T13:31:35;7.35;;;6.45;;
21030;SDS011;61072;47.808;7.636;2022-07-23T13:34:04;7.28;;;6.53;;
21030;SDS011;61072;47.808;7.636;2022-07-23T13:36:33;9.13;;;6.60;;
21030;SDS011;61072;47.808;7.636;2022-07-23T13:39:00;7.22;;;6.50;;
21030;SDS011;61072;47.808;7.636;2022-07-23T13:41:28;6.90;;;6.20;;
21030;SDS011;61072;47.808;7.636;2022-07-23T13:43:55;7.43;;;6.35;;
21030;SDS011;61072;47.808;7.636;2022-07-23T13:46:23;7.65;;;6.47;;
21030;SDS011;61072;47.808;7.636;2022-07-23T13:48:50;7.43;;;6.18;;
21030;SDS011;61072;47.808;7.636;2022-07-23T13:51:17;7.45;;;5.80;;
21030;SDS011;61072;47.808;7.636;2022-07-23T13:53:45;6.93;;;6.22;;
21030;SDS011;61072;47.808;7.636;2022-07-23T13:56:12;8.68;;;6.13;;
21030;SDS011;61072;47.808;7.636;2022-07-23T13:58:39;6.53;;;5.70;;
21030;SDS011;61072;47.808;7.636;2022-07-23T14:01:07;8.73;;;6.15;;
21030;SDS011;61072;47.808;7.636;2022-07-23T14:03:34;6.88;;;6.20;;
21030;SDS011;61072;47.808;7.636;2022-07-23T14:06:01;7.75;;;6.20;;
21030;SDS011;61072;47.808;7.636;2022-07-23T14:08:27;6.95;;;6.20;;
21030;SDS011;61072;47.808;7.636;2022-07-23T14:10:55;7.93;;;5.90;;
21030;SDS011;61072;47.808;7.636;2022-07-23T14:13:24;6.45;;;5.82;;
21030;SDS011;61072;47.808;7.636;2022-07-23T14:15:51;6.70;;;5.90;;
21030;SDS011;61072;47.808;7.636;2022-07-23T14:18:18;8.30;;;6.13;;
21030;SDS011;61072;47.808;7.636;2022-07-23T14:20:47;7.03;;;5.78;;
21030;SDS011;61072;47.808;7.636;2022-07-23T14:23:13;8.90;;;6.15;;
21030;SDS011;61072;47.808;7.636;2022-07-23T14:25:40;6.32;;;5.70;;
21030;SDS011;61072;47.808;7.636;2022-07-23T14:28:08;8.82;;;6.05;;
21030;SDS011;61072;47.808;7.636;2022-07-23T14:30:35;8.77;;;5.22;;
21030;SDS011;61072;47.808;7.636;2022-07-23T14:33:02;6.85;;;5.88;;
21030;SDS011;61072;47.808;7.636;2022-07-23T14:35:28;7.88;;;5.70;;
21030;SDS011;61072;47.808;7.636;2022-07-23T14:37:55;7.22;;;5.55;;
21030;SDS011;61072;47.808;7.636;2022-07-23T14:40:22;6.57;;;5.53;;
21030;SDS011;61072;47.808;7.636;2022-07-23T14:42:49;9.05;;;5.95;;
21030;SDS011;61072;47.808;7.636;2022-07-23T14:45:19;6.00;;;5.40;;
21030;SDS011;61072;47.808;7.636;2022-07-23T14:47:46;7.30;;;5.97;;
21030;SDS011;61072;47.808;7.636;2022-07-23T14:50:14;5.97;;;5.35;;
21030;SDS011;61072;47.808;7.636;2022-07-23T14:52:42;6.65;;;5.82;;
21030;SDS011;61072;47.808;7.636;2022-07-23T14:55:09;8.45;;;6.10;;
21030;SDS011;61072;47.808;7.636;2022-07-23T14:57:36;7.20;;;5.50;;
21030;SDS011;61072;47.808;7.636;2022-07-23T15:00:03;8.38;;;5.97;;
21030;SDS011;61072;47.808;7.636;2022-07-23T15:02:31;9.68;;;5.97;;
21030;SDS011;61072;47.808;7.636;2022-07-23T15:04:58;6.88;;;5.45;;
21030;SDS011;61072;47.808;7.636;2022-07-23T15:07:27;6.30;;;5.70;;
21030;SDS011;61072;47.808;7.636;2022-07-23T15:09:56;9.50;;;5.63;;
21030;SDS011;61072;47.808;7.636;2022-07-23T15:12:23;6.95;;;6.25;;
21030;SDS011;61072;47.808;7.636;2022-07-23T15:14:51;7.22;;;6.22;;
21030;SDS011;61072;47.808;7.636;2022-07-23T15:17:17;8.02;;;6.28;;
21030;SDS011;61072;47.808;7.636;2022-07-23T15:19:46;7.60;;;6.30;;
21030;SDS011;61072;47.808;7.636;2022-07-23T15:22:15;8.18;;;5.85;;
21030;SDS011;61072;47.808;7.636;2022-07-23T15:24:42;7.20;;;6.07;;
21030;SDS011;61072;47.808;7.636;2022-07-23T15:27:09;10.02;;;5.82;;
21030;SDS011;61072;47.808;7.636;2022-07-23T15:29:36;8.40;;;6.13;;
21030;SDS011;61072;47.808;7.636;2022-07-23T15:32:02;8.45;;;5.90;;
21030;SDS011;61072;47.808;7.636;2022-07-23T15:34:29;9.02;;;5.80;;
21030;SDS011;61072;47.808;7.636;2022-07-23T15:36:59;9.20;;;6.13;;
21030;SDS011;61072;47.808;7.636;2022-07-23T15:39:27;7.15;;;6.45;;
21030;SDS011;61072;47.808;7.636;2022-07-23T15:41:54;6.57;;;5.85;;
21030;SDS011;61072;47.808;7.636;2022-07-23T15:44:23;6.07;;;5.30;;